sensor_id;sensor_type;location;lat;lon;timestamp;P1;durP1;ratioP1;P2;durP2;ratioP2
19262;SDS011;9765;52.354;20.884;2023-05-17T05:19:20;5.03;;;3.80;;
19262;SDS011;9765;52.354;20.884;2023-05-17T05:21:47;5.00;;;4.00;;
19262;SDS011;9765;52.354;20.884;2023-05-17T05:24:14;6.07;;;5.13;;
19262;SDS011;9765;52.354;20.884;2023-05-17T05:26:41;7.60;;;5.80;;
19262;SDS011;9765;52.354;20.884;2023-05-17T05:29:08;7.33;;;6.30;;
19262;SDS011;9765;52.354;20.884;2023-05-17T05:31:35;5.93;;;5.20;;
19262;SDS011;9765;52.354;20.884;2023-05-17T05:34:04;7.13;;;5.17;;
19262;SDS011;9765;52.354;20.884;2023-05-17T05:36:32;6.03;;;5.10;;
19262;SDS011;9765;52.354;20.884;2023-05-17T05:38:59;8.07;;;4.73;;
19262;SDS011;9765;52.354;20.884;2023-05-17T05:41:26;7.53;;;5.40;;
19262;SDS011;9765;52.354;20.884;2023-05-17T05:43:53;6.83;;;5.13;;
19262;SDS011;9765;52.354;20.884;2023-05-17T05:46:20;6.23;;;4.63;;
19262;SDS011;9765;52.354;20.884;2023-05-17T05:48:48;7.00;;;5.27;;
19262;SDS011;9765;52.354;20.884;2023-05-17T05:51:14;6.93;;;5.60;;
19262;SDS011;9765;52.354;20.884;2023-05-17T05:53:46;7.60;;;5.90;;
19262;SDS011;9765;52.354;20.884;2023-05-17T05:56:12;6.53;;;5.73;;
19262;SDS011;9765;52.354;20.884;2023-05-17T05:58:39;9.03;;;6.63;;
19262;SDS011;9765;52.354;20.884;2023-05-17T06:01:06;7.47;;;6.33;;
19262;SDS011;9765;52.354;20.884;2023-05-17T06:03:32;7.40;;;5.37;;
19262;SDS011;9765;52.354;20.884;2023-05-17T06:05:59;6.63;;;5.37;;
19262;SDS011;9765;52.354;20.884;2023-05-17T06:08:26;7.70;;;6.27;;
19262;SDS011;9765;52.354;20.884;2023-05-17T06:10:54;8.43;;;6.30;;
19262;SDS011;9765;52.354;20.884;2023-05-17T06:13:21;8.10;;;5.73;;
19262;SDS011;9765;52.354;20.884;2023-05-17T06:15:47;7.37;;;5.37;;
19262;SDS011;9765;52.354;20.884;2023-05-17T06:18:15;9.00;;;6.40;;
19262;SDS011;9765;52.354;20.884;2023-05-17T06:20:41;6.83;;;5.43;;
19262;SDS011;9765;52.354;20.884;2023-05-17T06:23:11;8.30;;;6.50;;
19262;SDS011;9765;52.354;20.884;2023-05-17T06:25:38;7.87;;;6.37;;
19262;SDS011;9765;52.354;20.884;2023-05-17T06:28:08;8.20;;;6.47;;
19262;SDS011;9765;52.354;20.884;2023-05-17T06:30:36;10.63;;;6.70;;
19262;SDS011;9765;52.354;20.884;2023-05-17T06:33:03;7.50;;;5.97;;
19262;SDS011;9765;52.354;20.884;2023-05-17T06:35:30;6.47;;;5.17;;
19262;SDS011;9765;52.354;20.884;2023-05-17T06:37:56;8.07;;;5.80;;
19262;SDS011;9765;52.354;20.884;2023-05-17T06:40:23;6.43;;;5.40;;
19262;SDS011;9765;52.354;20.884;2023-05-17T06:42:50;10.97;;;5.77;;
19262;SDS011;9765;52.354;20.884;2023-05-17T06:45:20;6.40;;;5.30;;
19262;SDS011;9765;52.354;20.884;2023-05-17T06:47:47;6.40;;;4.90;;
19262;SDS011;9765;52.354;20.884;2023-05-17T06:50:14;7.87;;;6.17;;
19262;SDS011;9765;52.354;20.884;2023-05-17T06:52:41;8.90;;;6.43;;
19262;SDS011;9765;52.354;20.884;2023-05-17T06:55:08;9.33;;;6.00;;
19262;SDS011;9765;52.354;20.884;2023-05-17T06:57:35;5.97;;;5.03;;
19262;SDS011;9765;52.354;20.884;2023-05-17T07:00:02;6.93;;;5.27;;
19262;SDS011;9765;52.354;20.884;2023-05-17T07:02:32;7.13;;;5.07;;
19262;SDS011;9765;52.354;20.884;2023-05-17T07:05:02;7.47;;;5.70;;
19262;SDS011;9765;52.354;20.884;2023-05-17T07:07:30;7.97;;;5.83;;
19262;SDS011;9765;52.354;20.884;2023-05-17T07:09:59;10.50;;;6.53;;
19262;SDS011;9765;52.354;20.884;2023-05-17T07:12:26;8.57;;;6.07;;
19262;SDS011;9765;52.354;20.884;2023-05-17T07:14:53;7.93;;;5.90;;
19262;SDS011;9765;52.354;20.884;2023-05-17T07:17:20;8.07;;;6.13;;
19262;SDS011;9765;52.354;20.884;2023-05-17T07:19:51;8.73;;;6.03;;
19262;SDS011;9765;52.354;20.884;2023-05-17T07:22:18;6.27;;;5.20;;
19262;SDS011;9765;52.354;20.884;2023-05-17T07:24:45;7.50;;;5.33;;
19262;SDS011;9765;52.354;20.884;2023-05-17T07:27:11;7.33;;;5.00;;
19262;SDS011;9765;52.354;20.884;2023-05-17T07:29:41;5.97;;;5.10;;
19262;SDS011;9765;52.354;20.884;2023-05-17T07:32:08;6.93;;;4.87;;
19262;SDS011;9765;52.354;20.884;2023-05-17T07:34:34;9.07;;;5.37;;
19262;SDS011;9765;52.354;20.884;2023-05-17T07:37:03;6.60;;;5.40;;
19262;SDS011;9765;52.354;20.884;2023-05-17T07:39:31;7.90;;;5.00;;
19262;SDS011;9765;52.354;20.884;2023-05-17T07:41:58;7.43;;;5.33;;
19262;SDS011;9765;52.354;20.884;2023-05-17T07:44:25;8.57;;;6.53;;
19262;SDS011;9765;52.354;20.884;2023-05-17T07:46:52;6.53;;;5.23;;
19262;SDS011;9765;52.354;20.884;2023-05-17T07:49:18;6.13;;;5.03;;
19262;SDS011;9765;52.354;20.884;2023-05-17T07:51:45;7.17;;;5.60;;
19262;SDS011;9765;52.354;20.884;2023-05-17T07:54:21;5.53;;;4.73;;
19262;SDS011;9765;52.354;20.884;2023-05-17T07:56:49;8.70;;;4.73;;
19262;SDS011;9765;52.354;20.884;2023-05-17T07:59:17;5.30;;;4.00;;
19262;SDS011;9765;52.354;20.884;2023-05-17T08:01:44;5.30;;;4.20;;
19262;SDS011;9765;52.354;20.884;2023-05-17T08:04:14;5.47;;;3.50;;
19262;SDS011;9765;52.354;20.884;2023-05-17T08:06:42;6.30;;;4.20;;
19262;SDS011;9765;52.354;20.884;2023-05-17T08:09:11;6.90;;;3.50;;
19262;SDS011;9765;52.354;20.884;2023-05-17T08:11:42;5.70;;;4.57;;
19262;SDS011;9765;52.354;20.884;2023-05-17T08:14:10;5.87;;;4.30;;
19262;SDS011;9765;52.354;20.884;2023-05-17T08:16:38;6.27;;;4.17;;
19262;SDS011;9765;52.354;20.884;2023-05-17T08:19:10;8.63;;;5.10;;
19262;SDS011;9765;52.354;20.884;2023-05-17T08:21:38;9.30;;;5.00;;
19262;SDS011;9765;52.354;20.884;2023-05-17T08:24:05;5.70;;;4.30;;
19262;SDS011;9765;52.354;20.884;2023-05-17T08:26:32;9.70;;;5.33;;
19262;SDS011;9765;52.354;20.884;2023-05-17T08:29:01;6.37;;;4.90;;
19262;SDS011;9765;52.354;20.884;2023-05-17T08:31:29;7.67;;;5.53;;
19262;SDS011;9765;52.354;20.884;2023-05-17T08:33:59;8.00;;;5.87;;
19262;SDS011;9765;52.354;20.884;2023-05-17T08:36:25;7.13;;;5.60;;
19262;SDS011;9765;52.354;20.884;2023-05-17T08:38:52;8.67;;;5.90;;
19262;SDS011;9765;52.354;20.884;2023-05-17T08:41:19;10.30;;;5.97;;
19262;SDS011;9765;52.354;20.884;2023-05-17T08:43:46;11.43;;;6.57;;
19262;SDS011;9765;52.354;20.884;2023-05-17T08:46:16;10.37;;;6.67;;
19262;SDS011;9765;52.354;20.884;2023-05-17T08:48:45;9.27;;;6.83;;
19262;SDS011;9765;52.354;20.884;2023-05-17T08:51:16;10.17;;;6.47;;
19262;SDS011;9765;52.354;20.884;2023-05-17T08:53:44;7.60;;;5.80;;
19262;SDS011;9765;52.354;20.884;2023-05-17T08:56:11;9.53;;;5.77;;
19262;SDS011;9765;52.354;20.884;2023-05-17T08:58:43;7.93;;;6.27;;
19262;SDS011;9765;52.354;20.884;2023-05-17T09:01:17;8.90;;;6.57;;
19262;SDS011;9765;52.354;20.884;2023-05-17T09:03:45;10.10;;;6.07;;
19262;SDS011;9765;52.354;20.884;2023-05-17T09:06:14;9.83;;;6.27;;
19262;SDS011;9765;52.354;20.884;2023-05-17T09:08:42;9.23;;;6.97;;
19262;SDS011;9765;52.354;20.884;2023-05-17T09:11:11;9.37;;;7.17;;
19262;SDS011;9765;52.354;20.884;2023-05-17T09:13:47;10.73;;;7.87;;
19262;SDS011;9765;52.354;20.884;2023-05-17T09:16:14;11.67;;;7.67;;
19262;SDS011;9765;52.354;20.884;2023-05-17T09:18:51;9.83;;;6.87;;
19262;SDS011;9765;52.354;20.884;2023-05-17T09:21:19;12.27;;;7.70;;
19262;SDS011;9765;52.354;20.884;2023-05-17T09:23:46;10.70;;;7.37;;
19262;SDS011;9765;52.354;20.884;2023-05-17T09:26:13;10.77;;;7.33;;
19262;SDS011;9765;52.354;20.884;2023-05-17T09:28:42;9.87;;;6.93;;
19262;SDS011;9765;52.354;20.884;2023-05-17T09:31:09;10.83;;;7.37;;
19262;SDS011;9765;52.354;20.884;2023-05-17T09:33:44;11.47;;;7.43;;
19262;SDS011;9765;52.354;20.884;2023-05-17T09:36:15;10.37;;;6.47;;
19262;SDS011;9765;52.354;20.884;2023-05-17T09:38:43;12.77;;;7.07;;
19262;SDS011;9765;52.354;20.884;2023-05-17T09:41:17;11.90;;;7.80;;
19262;SDS011;9765;52.354;20.884;2023-05-17T09:43:45;13.13;;;7.27;;
19262;SDS011;9765;52.354;20.884;2023-05-17T09:46:13;9.57;;;6.30;;
19262;SDS011;9765;52.354;20.884;2023-05-17T09:48:40;10.60;;;7.00;;
19262;SDS011;9765;52.354;20.884;2023-05-17T09:51:09;12.20;;;6.87;;
19262;SDS011;9765;52.354;20.884;2023-05-17T09:53:38;13.60;;;7.83;;
19262;SDS011;9765;52.354;20.884;2023-05-17T09:56:06;11.07;;;6.97;;
19262;SDS011;9765;52.354;20.884;2023-05-17T09:58:35;12.60;;;6.40;;
19262;SDS011;9765;52.354;20.884;2023-05-17T10:01:03;10.90;;;6.40;;
19262;SDS011;9765;52.354;20.884;2023-05-17T10:03:31;11.83;;;6.33;;
19262;SDS011;9765;52.354;20.884;2023-05-17T10:05:59;11.30;;;6.77;;
19262;SDS011;9765;52.354;20.884;2023-05-17T10:08:30;13.47;;;6.77;;
19262;SDS011;9765;52.354;20.884;2023-05-17T10:10:59;13.67;;;6.90;;
19262;SDS011;9765;52.354;20.884;2023-05-17T10:13:32;14.57;;;7.03;;
19262;SDS011;9765;52.354;20.884;2023-05-17T10:16:03;17.80;;;7.30;;
19262;SDS011;9765;52.354;20.884;2023-05-17T10:18:30;16.30;;;7.47;;
19262;SDS011;9765;52.354;20.884;2023-05-17T10:20:58;17.90;;;6.70;;
19262;SDS011;9765;52.354;20.884;2023-05-17T10:23:25;15.73;;;7.40;;
19262;SDS011;9765;52.354;20.884;2023-05-17T10:25:56;15.67;;;7.73;;
19262;SDS011;9765;52.354;20.884;2023-05-17T10:28:24;17.70;;;5.70;;
19262;SDS011;9765;52.354;20.884;2023-05-17T10:30:52;11.80;;;6.37;;
19262;SDS011;9765;52.354;20.884;2023-05-17T10:33:20;13.57;;;6.07;;
19262;SDS011;9765;52.354;20.884;2023-05-17T10:35:47;13.50;;;5.53;;
19262;SDS011;9765;52.354;20.884;2023-05-17T10:38:16;11.73;;;5.70;;
19262;SDS011;9765;52.354;20.884;2023-05-17T10:40:43;10.83;;;5.40;;
19262;SDS011;9765;52.354;20.884;2023-05-17T10:43:12;14.30;;;5.90;;
19262;SDS011;9765;52.354;20.884;2023-05-17T10:45:42;13.40;;;6.00;;
19262;SDS011;9765;52.354;20.884;2023-05-17T10:48:09;12.33;;;5.13;;
19262;SDS011;9765;52.354;20.884;2023-05-17T10:50:36;12.37;;;5.60;;
19262;SDS011;9765;52.354;20.884;2023-05-17T10:53:06;10.60;;;5.37;;
19262;SDS011;9765;52.354;20.884;2023-05-17T10:55:37;14.07;;;5.27;;
19262;SDS011;9765;52.354;20.884;2023-05-17T10:58:16;14.10;;;5.30;;
19262;SDS011;9765;52.354;20.884;2023-05-17T11:00:44;10.77;;;5.10;;
19262;SDS011;9765;52.354;20.884;2023-05-17T11:03:13;11.93;;;4.40;;
19262;SDS011;9765;52.354;20.884;2023-05-17T11:05:42;10.83;;;4.80;;
19262;SDS011;9765;52.354;20.884;2023-05-17T11:08:11;10.53;;;4.20;;
19262;SDS011;9765;52.354;20.884;2023-05-17T11:10:44;8.10;;;4.10;;
19262;SDS011;9765;52.354;20.884;2023-05-17T11:13:49;10.27;;;4.13;;
19262;SDS011;9765;52.354;20.884;2023-05-17T11:16:21;13.73;;;5.03;;
19262;SDS011;9765;52.354;20.884;2023-05-17T11:18:50;13.13;;;4.43;;
19262;SDS011;9765;52.354;20.884;2023-05-17T11:21:18;12.93;;;4.77;;
19262;SDS011;9765;52.354;20.884;2023-05-17T11:23:47;15.20;;;4.73;;
19262;SDS011;9765;52.354;20.884;2023-05-17T11:26:20;13.23;;;4.50;;
19262;SDS011;9765;52.354;20.884;2023-05-17T11:28:51;12.57;;;4.50;;
19262;SDS011;9765;52.354;20.884;2023-05-17T11:31:29;11.07;;;3.87;;
19262;SDS011;9765;52.354;20.884;2023-05-17T11:34:00;11.23;;;4.40;;
19262;SDS011;9765;52.354;20.884;2023-05-17T11:36:28;14.80;;;4.50;;
19262;SDS011;9765;52.354;20.884;2023-05-17T11:39:08;13.37;;;4.53;;
19262;SDS011;9765;52.354;20.884;2023-05-17T11:41:36;18.23;;;4.70;;
19262;SDS011;9765;52.354;20.884;2023-05-17T11:44:06;11.53;;;4.07;;
19262;SDS011;9765;52.354;20.884;2023-05-17T11:46:36;12.03;;;4.60;;
19262;SDS011;9765;52.354;20.884;2023-05-17T11:49:05;12.87;;;4.67;;
19262;SDS011;9765;52.354;20.884;2023-05-17T11:51:36;21.07;;;7.40;;
19262;SDS011;9765;52.354;20.884;2023-05-17T11:54:04;15.73;;;5.10;;
19262;SDS011;9765;52.354;20.884;2023-05-17T11:56:33;11.70;;;5.00;;
19262;SDS011;9765;52.354;20.884;2023-05-17T11:59:00;13.23;;;5.23;;
19262;SDS011;9765;52.354;20.884;2023-05-17T12:01:42;11.63;;;5.00;;
19262;SDS011;9765;52.354;20.884;2023-05-17T12:04:10;15.43;;;5.73;;
19262;SDS011;9765;52.354;20.884;2023-05-17T12:06:37;17.90;;;5.23;;
19262;SDS011;9765;52.354;20.884;2023-05-17T12:09:04;13.37;;;5.57;;
19262;SDS011;9765;52.354;20.884;2023-05-17T12:11:34;11.20;;;5.13;;
19262;SDS011;9765;52.354;20.884;2023-05-17T12:14:03;13.17;;;6.07;;
19262;SDS011;9765;52.354;20.884;2023-05-17T12:16:32;17.00;;;5.90;;
19262;SDS011;9765;52.354;20.884;2023-05-17T12:19:02;14.57;;;5.90;;
19262;SDS011;9765;52.354;20.884;2023-05-17T12:21:29;10.97;;;5.60;;
19262;SDS011;9765;52.354;20.884;2023-05-17T12:23:55;14.13;;;6.30;;
19262;SDS011;9765;52.354;20.884;2023-05-17T12:26:22;14.73;;;6.10;;
19262;SDS011;9765;52.354;20.884;2023-05-17T12:28:53;16.67;;;6.10;;
19262;SDS011;9765;52.354;20.884;2023-05-17T12:31:23;11.80;;;5.70;;
19262;SDS011;9765;52.354;20.884;2023-05-17T12:33:51;12.17;;;5.67;;
19262;SDS011;9765;52.354;20.884;2023-05-17T12:36:20;16.47;;;6.87;;
19262;SDS011;9765;52.354;20.884;2023-05-17T12:38:49;11.73;;;5.20;;
19262;SDS011;9765;52.354;20.884;2023-05-17T12:41:18;16.80;;;5.87;;
19262;SDS011;9765;52.354;20.884;2023-05-17T12:43:48;16.30;;;5.70;;
19262;SDS011;9765;52.354;20.884;2023-05-17T12:46:15;13.07;;;5.37;;
19262;SDS011;9765;52.354;20.884;2023-05-17T12:48:44;20.50;;;6.27;;
19262;SDS011;9765;52.354;20.884;2023-05-17T12:51:12;10.27;;;4.90;;
19262;SDS011;9765;52.354;20.884;2023-05-17T12:53:47;11.17;;;5.80;;
19262;SDS011;9765;52.354;20.884;2023-05-17T12:56:16;13.30;;;6.40;;
19262;SDS011;9765;52.354;20.884;2023-05-17T12:58:43;16.40;;;6.57;;
19262;SDS011;9765;52.354;20.884;2023-05-17T13:01:31;13.90;;;6.50;;
19262;SDS011;9765;52.354;20.884;2023-05-17T13:03:58;14.07;;;6.67;;
19262;SDS011;9765;52.354;20.884;2023-05-17T13:06:25;18.20;;;5.90;;
19262;SDS011;9765;52.354;20.884;2023-05-17T13:09:03;16.07;;;6.10;;
19262;SDS011;9765;52.354;20.884;2023-05-17T13:11:32;17.73;;;6.60;;
19262;SDS011;9765;52.354;20.884;2023-05-17T13:14:05;15.60;;;7.33;;
19262;SDS011;9765;52.354;20.884;2023-05-17T13:16:31;14.53;;;6.70;;
19262;SDS011;9765;52.354;20.884;2023-05-17T13:19:10;14.77;;;5.53;;
19262;SDS011;9765;52.354;20.884;2023-05-17T13:21:37;13.97;;;6.23;;
19262;SDS011;9765;52.354;20.884;2023-05-17T13:24:07;16.93;;;6.40;;
19262;SDS011;9765;52.354;20.884;2023-05-17T13:26:34;14.50;;;6.10;;
19262;SDS011;9765;52.354;20.884;2023-05-17T13:29:02;16.07;;;6.23;;
19262;SDS011;9765;52.354;20.884;2023-05-17T13:31:29;11.80;;;5.63;;
19262;SDS011;9765;52.354;20.884;2023-05-17T13:33:56;13.93;;;5.50;;
19262;SDS011;9765;52.354;20.884;2023-05-17T13:36:23;14.23;;;5.00;;
19262;SDS011;9765;52.354;20.884;2023-05-17T13:38:58;13.10;;;5.30;;
19262;SDS011;9765;52.354;20.884;2023-05-17T13:41:27;15.20;;;5.43;;
19262;SDS011;9765;52.354;20.884;2023-05-17T13:43:54;14.00;;;5.00;;
19262;SDS011;9765;52.354;20.884;2023-05-17T13:46:21;13.37;;;5.43;;
19262;SDS011;9765;52.354;20.884;2023-05-17T13:48:48;17.23;;;6.20;;
19262;SDS011;9765;52.354;20.884;2023-05-17T13:51:14;13.07;;;5.40;;
19262;SDS011;9765;52.354;20.884;2023-05-17T13:53:42;12.73;;;5.83;;
19262;SDS011;9765;52.354;20.884;2023-05-17T13:56:08;14.23;;;6.37;;
19262;SDS011;9765;52.354;20.884;2023-05-17T13:58:36;14.27;;;5.73;;
19262;SDS011;9765;52.354;20.884;2023-05-17T14:01:06;14.67;;;6.33;;
19262;SDS011;9765;52.354;20.884;2023-05-17T14:03:32;13.57;;;5.93;;
19262;SDS011;9765;52.354;20.884;2023-05-17T14:06:00;15.27;;;6.40;;
19262;SDS011;9765;52.354;20.884;2023-05-17T14:08:27;13.50;;;6.40;;
19262;SDS011;9765;52.354;20.884;2023-05-17T14:10:59;14.60;;;5.93;;
19262;SDS011;9765;52.354;20.884;2023-05-17T14:13:27;11.20;;;4.70;;
19262;SDS011;9765;52.354;20.884;2023-05-17T14:15:57;14.90;;;4.43;;
19262;SDS011;9765;52.354;20.884;2023-05-17T14:18:24;15.13;;;4.20;;
19262;SDS011;9765;52.354;20.884;2023-05-17T14:20:51;12.67;;;4.67;;
19262;SDS011;9765;52.354;20.884;2023-05-17T14:23:18;18.90;;;5.00;;
19262;SDS011;9765;52.354;20.884;2023-05-17T14:25:47;19.10;;;4.47;;
19262;SDS011;9765;52.354;20.884;2023-05-17T14:28:14;14.87;;;5.47;;
19262;SDS011;9765;52.354;20.884;2023-05-17T14:30:42;11.00;;;4.90;;
19262;SDS011;9765;52.354;20.884;2023-05-17T14:33:10;10.77;;;4.20;;
19262;SDS011;9765;52.354;20.884;2023-05-17T14:35:36;12.13;;;3.97;;
19262;SDS011;9765;52.354;20.884;2023-05-17T14:38:03;11.93;;;4.63;;
19262;SDS011;9765;52.354;20.884;2023-05-17T14:40:30;10.27;;;4.40;;
19262;SDS011;9765;52.354;20.884;2023-05-17T14:42:57;11.80;;;4.90;;
19262;SDS011;9765;52.354;20.884;2023-05-17T14:45:24;8.80;;;3.73;;
19262;SDS011;9765;52.354;20.884;2023-05-17T14:47:53;9.87;;;4.47;;
19262;SDS011;9765;52.354;20.884;2023-05-17T14:50:23;16.17;;;4.60;;
19262;SDS011;9765;52.354;20.884;2023-05-17T14:52:50;11.23;;;3.90;;
19262;SDS011;9765;52.354;20.884;2023-05-17T14:55:17;13.53;;;4.10;;
19262;SDS011;9765;52.354;20.884;2023-05-17T14:57:44;14.70;;;4.80;;
19262;SDS011;9765;52.354;20.884;2023-05-17T15:00:11;10.27;;;4.10;;
19262;SDS011;9765;52.354;20.884;2023-05-17T15:02:38;10.43;;;4.00;;
19262;SDS011;9765;52.354;20.884;2023-05-17T15:05:05;9.07;;;4.17;;
19262;SDS011;9765;52.354;20.884;2023-05-17T15:07:34;11.83;;;4.77;;
19262;SDS011;9765;52.354;20.884;2023-05-17T15:10:01;13.17;;;4.97;;
19262;SDS011;9765;52.354;20.884;2023-05-17T15:12:30;12.63;;;5.07;;
19262;SDS011;9765;52.354;20.884;2023-05-17T15:14:57;10.20;;;4.80;;
19262;SDS011;9765;52.354;20.884;2023-05-17T15:17:27;10.33;;;4.70;;
19262;SDS011;9765;52.354;20.884;2023-05-17T15:19:53;14.07;;;4.87;;
19262;SDS011;9765;52.354;20.884;2023-05-17T15:22:20;9.50;;;4.30;;
19262;SDS011;9765;52.354;20.884;2023-05-17T15:24:49;12.93;;;3.70;;
19262;SDS011;9765;52.354;20.884;2023-05-17T15:27:18;11.37;;;4.27;;
19262;SDS011;9765;52.354;20.884;2023-05-17T15:29:44;9.23;;;3.93;;
19262;SDS011;9765;52.354;20.884;2023-05-17T15:32:11;15.00;;;4.17;;
19262;SDS011;9765;52.354;20.884;2023-05-17T15:34:38;10.17;;;3.37;;
19262;SDS011;9765;52.354;20.884;2023-05-17T15:37:05;9.50;;;3.40;;
19262;SDS011;9765;52.354;20.884;2023-05-17T15:39:32;10.07;;;4.20;;
19262;SDS011;9765;52.354;20.884;2023-05-17T15:42:00;7.80;;;3.40;;
19262;SDS011;9765;52.354;20.884;2023-05-17T15:44:27;6.70;;;3.37;;
19262;SDS011;9765;52.354;20.884;2023-05-17T15:46:54;11.20;;;4.10;;
19262;SDS011;9765;52.354;20.884;2023-05-17T15:49:22;6.93;;;3.47;;
19262;SDS011;9765;52.354;20.884;2023-05-17T15:51:49;11.17;;;4.13;;
19262;SDS011;9765;52.354;20.884;2023-05-17T15:54:16;8.87;;;4.10;;
19262;SDS011;9765;52.354;20.884;2023-05-17T15:56:43;9.43;;;4.30;;
19262;SDS011;9765;52.354;20.884;2023-05-17T15:59:11;14.07;;;4.23;;
19262;SDS011;9765;52.354;20.884;2023-05-17T16:01:39;14.97;;;4.60;;
19262;SDS011;9765;52.354;20.884;2023-05-17T16:04:10;12.87;;;3.87;;
19262;SDS011;9765;52.354;20.884;2023-05-17T16:06:36;13.87;;;4.03;;
19262;SDS011;9765;52.354;20.884;2023-05-17T16:09:03;10.13;;;4.20;;
19262;SDS011;9765;52.354;20.884;2023-05-17T16:11:30;7.30;;;3.97;;
19262;SDS011;9765;52.354;20.884;2023-05-17T16:13:57;8.87;;;4.17;;
19262;SDS011;9765;52.354;20.884;2023-05-17T16:16:25;9.87;;;4.07;;
19262;SDS011;9765;52.354;20.884;2023-05-17T16:18:52;12.10;;;4.70;;
19262;SDS011;9765;52.354;20.884;2023-05-17T16:21:18;15.83;;;8.30;;
19262;SDS011;9765;52.354;20.884;2023-05-17T16:23:45;10.27;;;6.50;;
19262;SDS011;9765;52.354;20.884;2023-05-17T16:26:12;7.90;;;5.90;;
19262;SDS011;9765;52.354;20.884;2023-05-17T16:28:39;10.10;;;4.57;;
19262;SDS011;9765;52.354;20.884;2023-05-17T16:31:06;11.23;;;4.67;;
19262;SDS011;9765;52.354;20.884;2023-05-17T16:33:36;10.53;;;5.17;;
19262;SDS011;9765;52.354;20.884;2023-05-17T16:36:05;11.13;;;4.63;;
19262;SDS011;9765;52.354;20.884;2023-05-17T16:38:36;8.17;;;4.10;;
19262;SDS011;9765;52.354;20.884;2023-05-17T16:41:03;8.63;;;3.83;;
19262;SDS011;9765;52.354;20.884;2023-05-17T16:43:30;13.53;;;4.40;;
19262;SDS011;9765;52.354;20.884;2023-05-17T16:45:56;10.87;;;4.10;;
19262;SDS011;9765;52.354;20.884;2023-05-17T16:48:23;10.17;;;4.00;;
19262;SDS011;9765;52.354;20.884;2023-05-17T16:50:51;13.10;;;5.10;;
19262;SDS011;9765;52.354;20.884;2023-05-17T16:53:18;10.13;;;5.17;;
19262;SDS011;9765;52.354;20.884;2023-05-17T16:55:45;11.57;;;4.97;;
19262;SDS011;9765;52.354;20.884;2023-05-17T16:58:12;8.20;;;4.53;;
19262;SDS011;9765;52.354;20.884;2023-05-17T17:00:39;10.03;;;4.33;;
19262;SDS011;9765;52.354;20.884;2023-05-17T17:03:06;10.23;;;4.03;;
19262;SDS011;9765;52.354;20.884;2023-05-17T17:05:32;11.77;;;4.30;;
19262;SDS011;9765;52.354;20.884;2023-05-17T17:08:00;17.17;;;4.70;;
19262;SDS011;9765;52.354;20.884;2023-05-17T17:10:27;12.97;;;4.87;;
19262;SDS011;9765;52.354;20.884;2023-05-17T17:12:54;9.93;;;4.40;;
19262;SDS011;9765;52.354;20.884;2023-05-17T17:15:21;11.00;;;4.63;;
19262;SDS011;9765;52.354;20.884;2023-05-17T17:17:51;8.93;;;4.20;;
19262;SDS011;9765;52.354;20.884;2023-05-17T17:20:18;11.13;;;4.63;;
19262;SDS011;9765;52.354;20.884;2023-05-17T17:22:45;11.33;;;3.83;;
19262;SDS011;9765;52.354;20.884;2023-05-17T17:25:15;8.90;;;3.60;;
19262;SDS011;9765;52.354;20.884;2023-05-17T17:27:43;9.77;;;3.87;;
19262;SDS011;9765;52.354;20.884;2023-05-17T17:30:12;8.57;;;4.10;;
19262;SDS011;9765;52.354;20.884;2023-05-17T17:32:39;13.00;;;4.43;;
19262;SDS011;9765;52.354;20.884;2023-05-17T17:35:08;10.07;;;4.50;;
19262;SDS011;9765;52.354;20.884;2023-05-17T17:37:35;16.27;;;4.33;;
19262;SDS011;9765;52.354;20.884;2023-05-17T17:40:02;10.77;;;3.47;;
19262;SDS011;9765;52.354;20.884;2023-05-17T17:42:31;15.33;;;4.20;;
19262;SDS011;9765;52.354;20.884;2023-05-17T17:44:57;10.23;;;4.17;;
19262;SDS011;9765;52.354;20.884;2023-05-17T17:47:27;11.53;;;4.70;;
19262;SDS011;9765;52.354;20.884;2023-05-17T17:49:54;9.70;;;4.10;;
19262;SDS011;9765;52.354;20.884;2023-05-17T17:52:21;6.67;;;3.47;;
19262;SDS011;9765;52.354;20.884;2023-05-17T17:54:47;13.50;;;4.67;;
19262;SDS011;9765;52.354;20.884;2023-05-17T17:57:14;12.33;;;4.87;;
19262;SDS011;9765;52.354;20.884;2023-05-17T17:59:44;10.40;;;4.87;;
19262;SDS011;9765;52.354;20.884;2023-05-17T18:02:13;17.00;;;4.50;;
19262;SDS011;9765;52.354;20.884;2023-05-17T18:04:40;9.37;;;4.10;;
19262;SDS011;9765;52.354;20.884;2023-05-17T18:07:07;15.47;;;4.77;;
19262;SDS011;9765;52.354;20.884;2023-05-17T18:09:33;12.17;;;4.97;;
19262;SDS011;9765;52.354;20.884;2023-05-17T18:12:00;12.40;;;4.63;;
